createdAt,value
2023-04-02T00:01:19.489Z,0.20
2023-04-02T00:03:53.945Z,0.20
2023-04-02T00:06:32.988Z,0.17
2023-04-02T00:09:15.328Z,0.20
2023-04-02T00:11:44.823Z,0.20
2023-04-02T00:14:31.746Z,0.20
2023-04-02T00:17:01.214Z,0.20
2023-04-02T00:19:37.392Z,0.20
2023-04-02T00:22:07.545Z,0.20
2023-04-02T00:24:34.586Z,0.20
2023-04-02T00:27:01.436Z,0.30
2023-04-02T00:29:28.238Z,0.20
2023-04-02T00:31:58.551Z,0.20
2023-04-02T00:34:38.352Z,0.28
2023-04-02T00:37:05.590Z,0.20
2023-04-02T00:39:39.183Z,0.20
2023-04-02T00:42:06.684Z,0.15
2023-04-02T00:44:38.928Z,0.28
2023-04-02T00:47:26.923Z,0.20
2023-04-02T00:50:18.409Z,0.13
2023-04-02T00:52:48.224Z,0.17
2023-04-02T00:55:36.095Z,0.30
2023-04-02T00:58:04.454Z,0.10
2023-04-02T01:00:35.965Z,0.10
2023-04-02T01:03:17.825Z,0.20
2023-04-02T01:05:46.841Z,0.10
2023-04-02T01:08:22.337Z,0.20
2023-04-02T01:10:58.063Z,0.17
2023-04-02T01:13:50.377Z,0.20
2023-04-02T01:16:33.068Z,0.20
2023-04-02T01:19:33.797Z,0.20
2023-04-02T01:22:21.918Z,0.20
2023-04-02T01:24:49.268Z,0.20
2023-04-02T01:27:24.845Z,0.15
2023-04-02T01:29:57.588Z,0.20
2023-04-02T01:32:26.763Z,0.20
2023-04-02T01:34:53.657Z,0.20
2023-04-02T01:37:44.752Z,0.10
2023-04-02T01:40:36.147Z,0.10
2023-04-02T01:43:30.210Z,0.20
2023-04-02T01:46:06.127Z,0.20
2023-04-02T01:48:32.834Z,0.15
2023-04-02T01:51:03.572Z,0.20
2023-04-02T01:53:31.267Z,0.15
2023-04-02T01:56:01.373Z,0.20
2023-04-02T01:58:34.311Z,0.17
2023-04-02T02:01:07.079Z,0.20
2023-04-02T02:03:35.021Z,0.45
2023-04-02T02:06:06.492Z,0.20
2023-04-02T02:08:44.737Z,0.30
2023-04-02T02:11:16.355Z,0.20
2023-04-02T02:13:55.155Z,0.20
2023-04-02T02:16:22.362Z,0.20
2023-04-02T02:18:53.567Z,0.15
2023-04-02T02:21:37.305Z,0.20
2023-04-02T02:24:05.405Z,0.20
2023-04-02T02:26:35.882Z,0.20
2023-04-02T02:29:06.821Z,0.15
2023-04-02T02:31:35.540Z,0.20
2023-04-02T02:34:08.379Z,0.25
2023-04-02T02:36:45.518Z,0.15
2023-04-02T02:39:22.231Z,0.30
2023-04-02T02:41:57.121Z,0.52
2023-04-02T02:44:29.608Z,0.10
2023-04-02T02:47:16.549Z,0.28
2023-04-02T02:49:51.664Z,0.10
2023-04-02T02:52:25.665Z,0.10
2023-04-02T02:55:06.367Z,0.20
2023-04-02T02:58:14.395Z,0.10
2023-04-02T03:00:49.581Z,0.10
2023-04-02T03:03:23.965Z,0.30
2023-04-02T03:06:02.085Z,0.10
2023-04-02T03:08:32.597Z,0.30
2023-04-02T03:11:19.523Z,0.20
2023-04-02T03:13:49.476Z,0.20
2023-04-02T03:16:41.992Z,0.10
2023-04-02T03:19:28.528Z,0.20
2023-04-02T03:22:08.596Z,0.17
2023-04-02T03:24:51.284Z,0.13
2023-04-02T03:27:32.031Z,0.20
2023-04-02T03:30:31.368Z,0.10
2023-04-02T03:33:19.850Z,0.10
2023-04-02T03:36:09.280Z,0.20
2023-04-02T03:38:43.589Z,0.20
2023-04-02T03:41:44.990Z,0.17
2023-04-02T03:44:41.986Z,0.25
2023-04-02T03:47:34.171Z,0.10
2023-04-02T03:50:18.310Z,0.30
2023-04-02T03:52:45.643Z,0.30
2023-04-02T03:55:40.973Z,0.20
2023-04-02T03:58:23.365Z,0.20
2023-04-02T04:01:08.897Z,0.28
2023-04-02T04:03:50.734Z,0.10
2023-04-02T04:06:27.470Z,0.15
2023-04-02T04:09:00.510Z,0.25
2023-04-02T04:11:33.452Z,0.20
2023-04-02T04:14:14.967Z,0.28
2023-04-02T04:16:49.004Z,0.22
2023-04-02T04:19:24.439Z,0.20
2023-04-02T04:21:56.926Z,0.20
2023-04-02T04:24:27.905Z,0.30
2023-04-02T04:27:09.453Z,0.20
2023-04-02T04:30:03.880Z,0.10
2023-04-02T04:32:39.241Z,0.17
2023-04-02T04:35:26.010Z,0.20
2023-04-02T04:38:15.890Z,0.20
2023-04-02T04:40:52.341Z,0.20
2023-04-02T04:43:40.233Z,0.20
2023-04-02T04:46:16.853Z,0.10
2023-04-02T04:48:49.914Z,0.10
2023-04-02T04:51:25.181Z,0.20
2023-04-02T04:53:55.209Z,0.20
2023-04-02T04:56:28.914Z,0.10
2023-04-02T04:59:19.061Z,0.13
2023-04-02T05:01:58.095Z,0.20
2023-04-02T05:04:37.967Z,0.20
2023-04-02T05:07:29.560Z,0.17
2023-04-02T05:10:17.742Z,0.20
2023-04-02T05:13:01.773Z,0.10
2023-04-02T05:15:32.321Z,0.20
2023-04-02T05:18:25.831Z,0.10
2023-04-02T05:21:08.401Z,0.25
2023-04-02T05:23:59.935Z,0.28
2023-04-02T05:26:42.929Z,0.40
2023-04-02T05:29:28.746Z,0.25
2023-04-02T05:32:00.291Z,0.40
2023-04-02T05:34:33.849Z,0.30
2023-04-02T05:37:01.868Z,0.20
2023-04-02T05:39:29.281Z,0.40
2023-04-02T05:42:08.456Z,0.30
2023-04-02T05:45:08.775Z,0.40
2023-04-02T05:47:41.100Z,0.22
2023-04-02T05:50:21.536Z,0.20
2023-04-02T05:52:58.747Z,0.30
2023-04-02T05:58:31.957Z,0.30
2023-04-02T06:01:11.934Z,0.20
2023-04-02T06:04:00.846Z,0.30
2023-04-02T06:06:41.511Z,0.45
2023-04-02T06:09:28.550Z,0.68
2023-04-02T06:12:12.453Z,0.20
2023-04-02T06:14:40.337Z,0.60
2023-04-02T06:17:13.412Z,0.30
2023-04-02T06:19:41.235Z,0.20
2023-04-02T06:22:16.530Z,0.20
2023-04-02T06:24:46.852Z,0.32
2023-04-02T06:27:19.972Z,0.20
2023-04-02T06:29:48.407Z,0.20
2023-04-02T06:32:22.530Z,0.25
2023-04-02T06:34:49.819Z,0.30
2023-04-02T06:37:23.404Z,0.20
2023-04-02T06:39:58.608Z,0.20
2023-04-02T06:42:31.264Z,0.20
2023-04-02T06:45:38.944Z,0.20
2023-04-02T06:48:17.643Z,0.20
2023-04-02T06:50:56.494Z,0.20
2023-04-02T06:53:29.340Z,0.30
2023-04-02T06:56:04.236Z,0.10
2023-04-02T06:58:32.382Z,0.28
2023-04-02T07:00:59.902Z,0.30
2023-04-02T07:03:40.390Z,0.30
2023-04-02T07:06:27.486Z,0.30
2023-04-02T07:08:58.036Z,0.43
2023-04-02T07:11:26.141Z,1.30
2023-04-02T07:13:56.080Z,2.25
2023-04-02T07:16:26.645Z,1.13
2023-04-02T07:18:55.486Z,1.02
2023-04-02T07:21:26.586Z,1.00
2023-04-02T07:23:54.316Z,1.45
2023-04-02T07:26:28.323Z,0.88
2023-04-02T07:28:56.424Z,1.00
2023-04-02T07:31:25.904Z,0.57
2023-04-02T07:34:00.620Z,0.50
2023-04-02T07:36:29.855Z,0.40
2023-04-02T07:38:56.522Z,0.75
2023-04-02T07:41:23.365Z,0.50
2023-04-02T07:43:50.126Z,0.70
2023-04-02T07:46:18.107Z,0.30
2023-04-02T07:48:45.383Z,0.30
2023-04-02T07:51:19.705Z,0.50
2023-04-02T07:53:50.029Z,0.40
2023-04-02T07:56:19.361Z,0.50
2023-04-02T07:58:46.701Z,0.50
2023-04-02T08:01:24.311Z,0.50
2023-04-02T08:03:53.730Z,0.32
2023-04-02T08:06:21.605Z,0.57
2023-04-02T08:08:48.657Z,0.55
2023-04-02T08:11:15.460Z,0.20
2023-04-02T08:13:42.639Z,0.20
2023-04-02T08:16:09.714Z,0.30
2023-04-02T08:18:36.688Z,0.70
2023-04-02T08:21:06.720Z,0.38
2023-04-02T08:23:33.775Z,0.60
2023-04-02T08:26:00.479Z,0.50
2023-04-02T08:28:27.619Z,0.22
2023-04-02T08:30:54.404Z,0.30
2023-04-02T08:33:21.331Z,0.28
2023-04-02T08:35:49.766Z,0.30
2023-04-02T08:38:20.451Z,0.30
2023-04-02T08:40:50.956Z,0.30
2023-04-02T08:43:44.109Z,0.60
2023-04-02T08:46:30.260Z,0.30
2023-04-02T08:49:01.283Z,0.25
2023-04-02T08:51:32.384Z,0.20
2023-04-02T08:54:18.458Z,0.25
2023-04-02T08:56:55.355Z,0.30
2023-04-02T08:59:38.587Z,0.30
2023-04-02T09:02:37.943Z,0.20
2023-04-02T09:05:08.034Z,0.30
2023-04-02T09:07:35.209Z,0.43
2023-04-02T09:10:02.269Z,0.30
2023-04-02T09:12:32.687Z,0.20
2023-04-02T09:15:20.599Z,0.30
2023-04-02T09:17:54.084Z,0.20
2023-04-02T09:20:26.626Z,0.30
2023-04-02T09:22:55.400Z,0.20
2023-04-02T09:25:27.093Z,0.20
2023-04-02T09:27:56.642Z,0.30
2023-04-02T09:30:32.164Z,0.40
2023-04-02T09:33:07.530Z,0.20
2023-04-02T09:35:47.313Z,0.30
2023-04-02T09:38:21.555Z,0.25
2023-04-02T09:40:58.759Z,0.20
2023-04-02T09:43:39.162Z,0.35
2023-04-02T09:46:25.834Z,0.20
2023-04-02T09:51:26.464Z,0.20
2023-04-02T09:54:02.347Z,0.20
2023-04-02T09:56:31.396Z,0.20
2023-04-02T09:59:27.420Z,0.20
2023-04-02T10:01:54.010Z,0.30
2023-04-02T10:04:44.462Z,0.40
2023-04-02T10:07:37.292Z,0.30
2023-04-02T10:10:18.850Z,0.20
2023-04-02T10:12:50.932Z,0.20
2023-04-02T10:15:23.886Z,0.20
2023-04-02T10:17:59.737Z,0.30
2023-04-02T10:20:29.272Z,0.30
2023-04-02T10:22:57.247Z,0.20
2023-04-02T10:25:29.591Z,0.30
2023-04-02T10:28:38.436Z,0.30
2023-04-02T10:31:22.732Z,0.20
2023-04-02T10:34:02.514Z,0.20
2023-04-02T10:36:55.608Z,0.20
2023-04-02T10:39:29.708Z,0.20
2023-04-02T10:42:06.954Z,0.20
2023-04-02T10:44:43.629Z,0.20
2023-04-02T10:47:22.410Z,0.20
2023-04-02T10:50:04.417Z,0.20
2023-04-02T10:52:44.679Z,0.20
2023-04-02T10:55:23.887Z,0.20
2023-04-02T10:57:54.202Z,0.20
2023-04-02T11:00:37.127Z,0.20
2023-04-02T11:03:07.141Z,0.20
2023-04-02T11:05:43.973Z,0.40
2023-04-02T11:08:25.777Z,0.20
2023-04-02T11:11:12.211Z,0.20
2023-04-02T11:13:48.130Z,0.20
2023-04-02T11:16:15.547Z,0.30
2023-04-02T11:18:42.877Z,0.20
2023-04-02T11:21:58.075Z,0.20
2023-04-02T11:24:36.968Z,0.20
2023-04-02T11:27:11.127Z,0.20
2023-04-02T11:29:49.786Z,0.32
2023-04-02T11:32:24.078Z,0.38
2023-04-02T11:35:03.060Z,0.30
2023-04-02T11:37:44.369Z,0.20
2023-04-02T11:40:11.010Z,0.30
2023-04-02T11:42:42.170Z,0.20
2023-04-02T11:45:21.337Z,0.15
2023-04-02T11:48:00.898Z,0.20
2023-04-02T11:50:36.134Z,0.10
2023-04-02T11:53:10.243Z,0.13
2023-04-02T11:55:41.797Z,0.20
2023-04-02T11:58:42.641Z,0.20
2023-04-02T12:01:20.763Z,0.38
2023-04-02T12:04:05.992Z,0.38
2023-04-02T12:06:32.608Z,0.30
2023-04-02T12:09:16.515Z,0.28
2023-04-02T12:11:43.473Z,0.20
2023-04-02T12:14:49.409Z,0.30
2023-04-02T12:17:26.903Z,0.20
2023-04-02T12:20:20.399Z,0.30
2023-04-02T12:22:53.222Z,0.25
2023-04-02T12:25:31.290Z,0.25
2023-04-02T12:28:10.243Z,0.20
2023-04-02T12:30:38.604Z,0.20
2023-04-02T12:33:27.755Z,0.30
2023-04-02T12:36:02.786Z,0.17
2023-04-02T12:38:43.813Z,0.20
2023-04-02T12:41:33.190Z,0.40
2023-04-02T12:44:33.911Z,0.28
2023-04-02T12:47:01.459Z,0.20
2023-04-02T12:49:38.449Z,0.20
2023-04-02T12:52:11.190Z,0.20
2023-04-02T12:54:49.209Z,0.20
2023-04-02T12:57:26.459Z,0.30
2023-04-02T12:59:54.616Z,0.10
2023-04-02T13:02:43.951Z,0.30
2023-04-02T13:05:11.432Z,0.30
2023-04-02T13:07:38.795Z,0.30
2023-04-02T13:10:26.382Z,0.28
2023-04-02T13:13:02.952Z,0.32
2023-04-02T13:15:36.572Z,0.30
2023-04-02T13:18:19.364Z,0.20
2023-04-02T13:20:56.662Z,0.43
2023-04-02T13:23:29.510Z,0.30
2023-04-02T13:26:24.344Z,0.30
2023-04-02T13:29:02.190Z,0.40
2023-04-02T13:31:32.710Z,0.30
2023-04-02T13:33:59.470Z,0.20
2023-04-02T13:36:29.157Z,0.40
2023-04-02T13:38:56.153Z,0.20
2023-04-02T13:41:26.366Z,0.40
2023-04-02T13:43:54.267Z,0.20
2023-04-02T13:46:23.568Z,0.30
2023-04-02T13:48:52.208Z,0.30
2023-04-02T13:51:22.158Z,0.30
2023-04-02T13:53:53.300Z,0.40
2023-04-02T13:56:21.390Z,0.30
2023-04-02T13:58:48.085Z,0.40
2023-04-02T14:01:15.216Z,0.22
2023-04-02T14:03:42.198Z,0.30
2023-04-02T14:06:52.377Z,0.38
2023-04-02T14:09:19.052Z,0.25
2023-04-02T14:12:06.089Z,0.30
2023-04-02T14:14:52.308Z,0.20
2023-04-02T14:17:49.831Z,0.40
2023-04-02T14:20:51.647Z,0.20
2023-04-02T14:23:45.390Z,0.40
2023-04-02T14:26:17.676Z,0.40
2023-04-02T14:29:18.675Z,0.40
2023-04-02T14:32:09.364Z,0.40
2023-04-02T14:35:06.957Z,0.45
2023-04-02T14:38:03.796Z,0.30
2023-04-02T14:40:50.137Z,0.50
2023-04-02T14:43:22.341Z,0.80
2023-04-02T14:46:05.021Z,0.80
2023-04-02T14:48:43.753Z,0.70
2023-04-02T14:51:21.275Z,0.50
2023-04-02T14:54:09.196Z,1.00
2023-04-02T14:56:50.618Z,0.70
2023-04-02T14:59:45.353Z,0.65
2023-04-02T15:02:40.217Z,1.23
2023-04-02T15:05:44.458Z,0.57
2023-04-02T15:08:20.801Z,0.55
2023-04-02T15:11:08.461Z,0.40
2023-04-02T15:13:42.041Z,0.40
2023-04-02T15:16:19.558Z,0.32
2023-04-02T15:18:50.626Z,0.43
2023-04-02T15:21:20.133Z,0.40
2023-04-02T15:24:01.738Z,0.50
2023-04-02T15:26:46.288Z,0.40
2023-04-02T15:29:33.712Z,0.35
2023-04-02T15:32:32.361Z,0.45
2023-04-02T15:35:08.300Z,0.30
2023-04-02T15:37:56.599Z,0.30
2023-04-02T15:40:38.345Z,0.50
2023-04-02T15:43:11.356Z,0.40
2023-04-02T15:46:08.995Z,0.50
2023-04-02T15:49:00.612Z,0.38
2023-04-02T15:51:50.089Z,0.40
2023-04-02T15:54:43.850Z,0.40
2023-04-02T15:57:29.034Z,0.30
2023-04-02T16:00:17.291Z,0.45
2023-04-02T16:03:12.196Z,0.30
2023-04-02T16:06:12.821Z,0.30
2023-04-02T16:08:57.123Z,0.40
2023-04-02T16:11:24.907Z,0.30
2023-04-02T16:13:59.486Z,0.30
2023-04-02T16:16:36.114Z,0.30
2023-04-02T16:19:05.392Z,0.30
2023-04-02T16:21:54.273Z,0.40
2023-04-02T16:24:21.247Z,0.47
2023-04-02T16:26:53.974Z,0.40
2023-04-02T16:29:53.377Z,0.45
2023-04-02T16:32:42.335Z,0.50
2023-04-02T16:35:43.207Z,0.50
2023-04-02T16:38:11.825Z,0.50
2023-04-02T16:40:43.326Z,0.50
2023-04-02T16:43:16.407Z,0.40
2023-04-02T16:46:01.373Z,0.50
2023-04-02T16:48:51.380Z,0.40
2023-04-02T16:51:38.029Z,0.40
2023-04-02T16:56:57.558Z,0.47
2023-04-02T16:59:24.155Z,0.43
2023-04-02T17:02:15.719Z,0.47
2023-04-02T17:05:04.370Z,0.60
2023-04-02T17:08:11.191Z,0.60
2023-04-02T17:10:49.751Z,0.70
2023-04-02T17:13:19.266Z,0.63
2023-04-02T17:15:53.753Z,0.60
2023-04-02T17:18:24.507Z,0.60
2023-04-02T17:20:51.320Z,0.77
2023-04-02T17:23:19.948Z,0.70
2023-04-02T17:26:00.512Z,0.70
2023-04-02T17:28:36.961Z,0.98
2023-04-02T17:31:15.737Z,0.88
2023-04-02T17:33:42.429Z,0.80
2023-04-02T17:36:18.840Z,0.57
2023-04-02T17:38:57.675Z,0.82
2023-04-02T17:41:36.450Z,0.90
2023-04-02T17:44:18.600Z,0.77
2023-04-02T17:46:52.826Z,0.80
2023-04-02T17:49:40.702Z,0.80
2023-04-02T17:52:18.018Z,0.80
2023-04-02T17:54:56.654Z,0.70
2023-04-02T17:57:42.832Z,0.80
2023-04-02T18:00:36.648Z,0.77
2023-04-02T18:03:11.172Z,0.90
2023-04-02T18:06:19.814Z,0.80
2023-04-02T18:08:46.439Z,0.70
2023-04-02T18:11:33.788Z,0.80
2023-04-02T18:14:16.549Z,0.70
2023-04-02T18:16:54.929Z,0.65
2023-04-02T18:19:42.699Z,0.70
2023-04-02T18:22:17.993Z,0.90
2023-04-02T18:25:04.136Z,0.90
2023-04-02T18:28:02.365Z,0.85
2023-04-02T18:30:40.676Z,0.80
2023-04-02T18:33:17.077Z,0.90
2023-04-02T18:36:05.211Z,1.10
2023-04-02T18:38:54.822Z,0.90
2023-04-02T18:41:27.342Z,0.90
2023-04-02T18:44:02.866Z,1.10
2023-04-02T18:46:39.687Z,0.90
2023-04-02T18:49:27.705Z,1.00
2023-04-02T18:52:18.107Z,1.10
2023-04-02T18:54:51.162Z,1.00
2023-04-02T18:57:26.298Z,1.00
2023-04-02T19:00:11.150Z,1.17
2023-04-02T19:02:42.957Z,1.40
2023-04-02T19:05:25.631Z,1.20
2023-04-02T19:08:06.048Z,1.50
2023-04-02T19:10:39.320Z,1.38
2023-04-02T19:13:16.230Z,1.30
2023-04-02T19:16:02.360Z,1.20
2023-04-02T19:18:41.906Z,1.40
2023-04-02T19:21:31.836Z,1.48
2023-04-02T19:24:13.000Z,1.40
2023-04-02T19:26:57.106Z,1.45
2023-04-02T19:29:37.687Z,1.42
2023-04-02T19:32:15.265Z,1.50
2023-04-02T19:34:51.650Z,1.50
2023-04-02T19:37:36.277Z,1.70
2023-04-02T19:40:11.588Z,1.60
2023-04-02T19:42:49.699Z,1.80
2023-04-02T19:45:36.288Z,1.77
2023-04-02T19:48:14.306Z,1.90
2023-04-02T19:50:41.261Z,1.60
2023-04-02T19:53:08.112Z,1.65
2023-04-02T19:55:35.289Z,1.70
2023-04-02T19:58:13.139Z,1.90
2023-04-02T20:00:46.241Z,1.98
2023-04-02T20:03:12.899Z,2.33
2023-04-02T20:05:39.639Z,2.47
2023-04-02T20:08:06.305Z,2.40
2023-04-02T20:10:32.962Z,2.10
2023-04-02T20:12:59.628Z,2.35
2023-04-02T20:15:26.342Z,2.30
2023-04-02T20:17:53.193Z,2.20
2023-04-02T20:20:20.507Z,2.03
2023-04-02T20:22:48.127Z,1.65
2023-04-02T20:25:14.897Z,1.77
2023-04-02T20:27:41.856Z,2.10
2023-04-02T20:30:08.877Z,1.88
2023-04-02T20:32:37.785Z,1.90
2023-04-02T20:35:05.957Z,1.83
2023-04-02T20:37:32.847Z,1.73
2023-04-02T20:39:59.630Z,1.70
2023-04-02T20:42:26.516Z,1.88
2023-04-02T20:44:53.251Z,1.80
2023-04-02T20:47:20.067Z,1.75
2023-04-02T20:49:46.917Z,1.60
2023-04-02T20:52:13.656Z,1.80
2023-04-02T20:54:40.471Z,1.80
2023-04-02T20:57:07.158Z,1.60
2023-04-02T20:59:33.829Z,1.50
2023-04-02T21:02:00.468Z,2.08
2023-04-02T21:04:28.116Z,1.55
2023-04-02T21:06:56.990Z,1.42
2023-04-02T21:09:23.841Z,1.70
2023-04-02T21:11:50.751Z,1.50
2023-04-02T21:14:18.043Z,1.77
2023-04-02T21:16:44.872Z,1.88
2023-04-02T21:19:12.105Z,1.70
2023-04-02T21:21:40.377Z,1.70
2023-04-02T21:24:08.493Z,2.00
2023-04-02T21:26:39.578Z,1.67
2023-04-02T21:29:06.339Z,1.92
2023-04-02T21:31:38.334Z,2.00
2023-04-02T21:34:05.994Z,1.83
2023-04-02T21:36:39.201Z,1.90
2023-04-02T21:39:12.958Z,2.10
2023-04-02T21:41:42.392Z,1.98
2023-04-02T21:44:12.933Z,1.80
2023-04-02T21:46:42.336Z,1.95
2023-04-02T21:49:13.842Z,2.00
2023-04-02T21:51:41.796Z,1.90
2023-04-02T21:54:08.927Z,1.80
2023-04-02T21:56:38.295Z,1.95
2023-04-02T21:59:06.430Z,2.00
2023-04-02T22:01:42.527Z,2.15
2023-04-02T22:04:15.089Z,2.05
2023-04-02T22:06:42.583Z,2.30
2023-04-02T22:09:15.914Z,2.35
2023-04-02T22:11:47.827Z,2.00
2023-04-02T22:14:15.281Z,1.92
2023-04-02T22:16:42.458Z,2.30
2023-04-02T22:19:14.501Z,2.13
2023-04-02T22:21:41.782Z,2.10
2023-04-02T22:24:12.907Z,2.00
2023-04-02T22:26:40.617Z,2.10
2023-04-02T22:29:07.777Z,2.30
2023-04-02T22:31:35.144Z,1.88
2023-04-02T22:34:03.966Z,2.03
2023-04-02T22:36:31.266Z,2.05
2023-04-02T22:38:59.135Z,1.83
2023-04-02T22:41:31.889Z,1.80
2023-04-02T22:44:00.247Z,2.00
2023-04-02T22:46:28.660Z,1.90
2023-04-02T22:48:55.794Z,2.10
2023-04-02T22:51:24.068Z,2.13
2023-04-02T22:53:53.609Z,2.25
2023-04-02T22:56:23.138Z,1.75
2023-04-02T22:58:49.792Z,2.13
2023-04-02T23:01:22.664Z,2.20
2023-04-02T23:03:49.724Z,1.85
2023-04-02T23:06:18.203Z,2.13
2023-04-02T23:08:46.032Z,2.15
2023-04-02T23:11:19.045Z,1.77
2023-04-02T23:13:48.279Z,2.00
2023-04-02T23:16:16.023Z,1.98
2023-04-02T23:18:45.655Z,1.90
2023-04-02T23:21:12.424Z,1.98
2023-04-02T23:23:39.292Z,2.00
2023-04-02T23:26:10.986Z,1.83
2023-04-02T23:28:39.471Z,2.13
2023-04-02T23:31:08.149Z,2.00
2023-04-02T23:33:35.578Z,1.85
2023-04-02T23:36:35.418Z,2.13
2023-04-02T23:39:10.380Z,2.13
2023-04-02T23:41:39.254Z,1.83
2023-04-02T23:44:06.359Z,1.92
2023-04-02T23:46:34.383Z,1.90
2023-04-02T23:49:02.084Z,1.95
2023-04-02T23:51:31.141Z,1.70
2023-04-02T23:53:57.891Z,1.88
2023-04-02T23:56:24.947Z,2.10
2023-04-02T23:58:51.937Z,2.05
